createdAt,value
2023-05-05T00:00:03.256Z,0.00
2023-05-05T00:01:03.233Z,0.00
2023-05-05T00:02:03.229Z,0.00
2023-05-05T00:03:03.294Z,0.00
2023-05-05T00:04:03.251Z,0.00
2023-05-05T00:05:03.210Z,0.00
2023-05-05T00:06:03.125Z,0.00
2023-05-05T00:07:03.086Z,0.00
2023-05-05T00:08:03.067Z,0.00
2023-05-05T00:09:03.077Z,0.00
2023-05-05T00:10:03.011Z,0.00
2023-05-05T00:11:03.074Z,0.00
2023-05-05T00:12:03.014Z,0.00
2023-05-05T00:13:02.999Z,0.00
2023-05-05T00:14:02.916Z,0.00
2023-05-05T00:15:02.887Z,0.00
2023-05-05T00:16:02.871Z,0.00
2023-05-05T00:17:02.884Z,0.00
2023-05-05T00:18:02.894Z,0.00
2023-05-05T00:19:02.793Z,0.00
2023-05-05T00:20:02.772Z,0.00
2023-05-05T00:21:02.757Z,0.00
2023-05-05T00:22:02.720Z,0.00
2023-05-05T00:23:02.695Z,0.00
2023-05-05T00:24:02.671Z,0.00
2023-05-05T00:25:02.671Z,0.00
2023-05-05T00:26:02.650Z,0.00
2023-05-05T00:27:02.600Z,0.00
2023-05-05T00:28:02.578Z,0.00
2023-05-05T00:29:02.552Z,0.00
2023-05-05T00:30:02.528Z,0.00
2023-05-05T00:31:02.524Z,0.00
2023-05-05T00:32:02.481Z,0.00
2023-05-05T00:33:02.498Z,0.00
2023-05-05T00:34:02.433Z,0.00
2023-05-05T00:35:02.412Z,0.00
2023-05-05T00:36:02.385Z,0.00
2023-05-05T00:37:02.357Z,0.00
2023-05-05T00:38:02.336Z,0.00
2023-05-05T00:39:02.307Z,0.00
2023-05-05T00:40:02.298Z,0.00
2023-05-05T00:41:02.273Z,0.00
2023-05-05T00:42:02.240Z,0.00
2023-05-05T00:43:02.216Z,0.00
2023-05-05T00:44:02.190Z,0.00
2023-05-05T00:45:02.160Z,0.00
2023-05-05T00:46:02.251Z,0.00
2023-05-05T00:47:02.110Z,0.00
2023-05-05T00:48:02.111Z,0.00
2023-05-05T00:49:02.088Z,0.00
2023-05-05T00:50:02.046Z,0.00
2023-05-05T00:51:02.015Z,0.00
2023-05-05T00:52:01.986Z,0.00
2023-05-05T00:53:02.023Z,0.00
2023-05-05T00:54:01.936Z,0.00
2023-05-05T00:55:01.918Z,0.00
2023-05-05T00:56:01.892Z,0.00
2023-05-05T00:57:01.884Z,0.00
2023-05-05T00:58:01.843Z,0.00
2023-05-05T00:59:01.815Z,0.00
2023-05-05T01:00:01.790Z,0.00
2023-05-05T01:01:01.769Z,0.00
2023-05-05T01:02:01.884Z,0.00
2023-05-05T01:03:01.844Z,0.00
2023-05-05T01:04:01.733Z,0.00
2023-05-05T01:05:01.689Z,0.00
2023-05-05T01:06:01.660Z,0.00
2023-05-05T01:07:01.615Z,0.00
2023-05-05T01:08:01.591Z,0.00
2023-05-05T01:09:01.575Z,0.00
2023-05-05T01:10:18.055Z,0.00
2023-05-05T01:11:01.517Z,0.00
2023-05-05T01:12:01.498Z,0.00
2023-05-05T01:13:01.519Z,0.00
2023-05-05T01:14:01.461Z,0.00
2023-05-05T01:15:01.424Z,0.00
2023-05-05T01:16:01.460Z,0.00
2023-05-05T01:17:01.373Z,0.00
2023-05-05T01:18:01.389Z,0.00
2023-05-05T01:19:01.328Z,0.00
2023-05-05T01:20:01.294Z,0.00
2023-05-05T01:21:01.269Z,0.00
2023-05-05T01:22:01.262Z,0.00
2023-05-05T01:23:01.236Z,0.00
2023-05-05T01:24:01.215Z,0.00
2023-05-05T01:25:01.174Z,0.00
2023-05-05T01:26:01.147Z,0.00
2023-05-05T01:27:01.117Z,0.00
2023-05-05T01:28:01.098Z,0.00
2023-05-05T01:29:01.091Z,0.00
2023-05-05T01:30:01.083Z,0.00
2023-05-05T01:31:01.022Z,0.00
2023-05-05T01:32:01.041Z,0.00
2023-05-05T01:33:00.976Z,0.00
2023-05-05T01:34:00.958Z,0.00
2023-05-05T01:35:00.922Z,0.00
2023-05-05T01:36:00.896Z,0.00
2023-05-05T01:37:00.868Z,0.00
2023-05-05T01:38:00.845Z,0.00
2023-05-05T01:39:00.824Z,0.00
2023-05-05T01:40:00.793Z,0.00
2023-05-05T01:41:00.770Z,0.00
2023-05-05T01:42:00.747Z,0.00
2023-05-05T01:43:00.739Z,0.00
2023-05-05T01:44:00.699Z,0.00
2023-05-05T01:45:00.712Z,0.00
2023-05-05T01:46:00.664Z,0.00
2023-05-05T01:47:00.641Z,0.00
2023-05-05T01:48:00.610Z,0.00
2023-05-05T01:49:00.573Z,0.00
2023-05-05T01:50:00.560Z,0.00
2023-05-05T01:51:00.521Z,0.00
2023-05-05T01:52:00.496Z,0.00
2023-05-05T01:53:00.470Z,0.00
2023-05-05T01:54:00.447Z,0.00
2023-05-05T01:55:00.423Z,0.00
2023-05-05T01:56:00.397Z,0.00
2023-05-05T01:57:00.375Z,0.00
2023-05-05T01:58:00.351Z,0.00
2023-05-05T01:59:00.389Z,0.00
2023-05-05T02:00:00.303Z,0.00
2023-05-05T02:01:00.377Z,0.00
2023-05-05T02:02:00.403Z,0.00
2023-05-05T02:03:00.311Z,0.00
2023-05-05T02:04:00.198Z,0.00
2023-05-05T02:05:00.181Z,0.00
2023-05-05T02:06:00.147Z,0.00
2023-05-05T02:07:00.160Z,0.00
2023-05-05T02:08:00.160Z,0.00
2023-05-05T02:09:00.123Z,0.00
2023-05-05T02:10:00.050Z,0.00
2023-05-05T02:11:00.027Z,0.00
2023-05-05T02:12:00.022Z,0.00
2023-05-05T02:13:00.031Z,0.00
2023-05-05T02:14:00.018Z,0.00
2023-05-05T02:14:59.927Z,0.00
2023-05-05T02:15:59.921Z,0.00
2023-05-05T02:16:59.900Z,0.00
2023-05-05T02:17:59.925Z,0.00
2023-05-05T02:18:59.824Z,0.00
2023-05-05T02:19:59.811Z,0.00
2023-05-05T02:20:59.782Z,0.00
2023-05-05T02:21:59.757Z,0.00
2023-05-05T02:22:59.728Z,0.00
2023-05-05T02:23:59.703Z,0.00
2023-05-05T02:24:59.679Z,0.00
2023-05-05T02:25:59.655Z,0.00
2023-05-05T02:26:59.630Z,0.00
2023-05-05T02:27:59.603Z,0.00
2023-05-05T02:28:59.580Z,0.00
2023-05-05T02:29:59.555Z,0.00
2023-05-05T02:30:59.665Z,0.00
2023-05-05T02:31:59.501Z,0.00
2023-05-05T02:32:59.532Z,0.00
2023-05-05T02:33:59.456Z,0.00
2023-05-05T02:34:59.430Z,0.00
2023-05-05T02:35:59.405Z,0.00
2023-05-05T02:36:59.380Z,0.00
2023-05-05T02:37:59.357Z,0.00
2023-05-05T02:38:59.327Z,0.00
2023-05-05T02:39:59.305Z,0.00
2023-05-05T02:40:59.282Z,0.00
2023-05-05T02:41:59.257Z,0.00
2023-05-05T02:42:59.249Z,0.00
2023-05-05T02:43:59.206Z,0.00
2023-05-05T02:44:59.181Z,0.00
2023-05-05T02:45:59.168Z,0.00
2023-05-05T02:46:59.141Z,0.00
2023-05-05T02:47:59.155Z,0.00
2023-05-05T02:48:59.107Z,0.00
2023-05-05T02:49:59.061Z,0.00
2023-05-05T02:50:59.030Z,0.00
2023-05-05T02:51:59.003Z,0.00
2023-05-05T02:52:58.979Z,0.00
2023-05-05T02:53:58.955Z,0.00
2023-05-05T02:54:58.931Z,0.00
2023-05-05T02:55:58.909Z,0.00
2023-05-05T02:56:58.886Z,0.00
2023-05-05T02:57:58.857Z,0.00
2023-05-05T02:58:58.829Z,0.00
2023-05-05T02:59:58.815Z,0.00
2023-05-05T03:00:58.778Z,0.00
2023-05-05T03:01:58.917Z,0.00
2023-05-05T03:02:58.834Z,0.00
2023-05-05T03:03:58.716Z,0.00
2023-05-05T03:04:58.696Z,0.00
2023-05-05T03:05:58.658Z,0.00
2023-05-05T03:06:58.625Z,0.00
2023-05-05T03:07:58.603Z,0.00
2023-05-05T03:08:58.580Z,0.00
2023-05-05T03:09:58.558Z,0.00
2023-05-05T03:10:58.536Z,0.00
2023-05-05T03:11:58.551Z,0.00
2023-05-05T03:12:58.530Z,0.00
2023-05-05T03:13:58.461Z,0.00
2023-05-05T03:14:58.433Z,0.00
2023-05-05T03:15:58.421Z,0.00
2023-05-05T03:16:58.401Z,0.00
2023-05-05T03:17:58.388Z,0.00
2023-05-05T03:18:58.329Z,0.00
2023-05-05T03:19:58.301Z,0.00
2023-05-05T03:20:58.298Z,0.00
2023-05-05T03:21:58.257Z,0.00
2023-05-05T03:22:58.232Z,0.00
2023-05-05T03:23:58.203Z,0.00
2023-05-05T03:24:58.179Z,0.00
2023-05-05T03:25:58.156Z,0.00
2023-05-05T03:26:58.129Z,0.00
2023-05-05T03:27:58.104Z,0.00
2023-05-05T03:28:58.077Z,0.00
2023-05-05T03:29:58.058Z,0.00
2023-05-05T03:30:58.029Z,0.00
2023-05-05T03:31:58.012Z,4.00
2023-05-05T03:32:57.998Z,4.00
2023-05-05T03:33:57.957Z,4.00
2023-05-05T03:34:57.931Z,4.00
2023-05-05T03:35:57.905Z,4.00
2023-05-05T03:36:57.903Z,4.00
2023-05-05T03:37:57.859Z,4.00
2023-05-05T03:38:57.830Z,4.00
2023-05-05T03:39:57.808Z,4.00
2023-05-05T03:40:57.780Z,4.00
2023-05-05T03:41:57.757Z,4.00
2023-05-05T03:42:57.730Z,4.00
2023-05-05T03:43:57.705Z,8.00
2023-05-05T03:44:57.682Z,8.00
2023-05-05T03:45:57.697Z,8.00
2023-05-05T03:46:57.643Z,12.00
2023-05-05T03:47:57.634Z,12.00
2023-05-05T03:48:57.581Z,16.00
2023-05-05T03:49:57.555Z,20.00
2023-05-05T03:50:57.533Z,20.00
2023-05-05T03:51:57.507Z,24.00
2023-05-05T03:52:57.502Z,32.00
2023-05-05T03:53:57.457Z,36.00
2023-05-05T03:54:57.435Z,40.00
2023-05-05T03:55:57.410Z,48.00
2023-05-05T03:56:57.384Z,56.00
2023-05-05T03:57:57.364Z,68.00
2023-05-05T03:58:57.336Z,76.00
2023-05-05T03:59:57.309Z,84.00
2023-05-05T04:00:57.289Z,96.00
2023-05-05T04:01:57.296Z,104.00
2023-05-05T04:02:57.343Z,120.00
2023-05-05T04:03:57.290Z,132.00
2023-05-05T04:04:57.186Z,148.00
2023-05-05T04:05:57.170Z,160.00
2023-05-05T04:06:57.135Z,180.00
2023-05-05T04:07:57.127Z,196.00
2023-05-05T04:08:57.108Z,208.00
2023-05-05T04:09:57.061Z,228.00
2023-05-05T04:10:57.037Z,244.00
2023-05-05T04:11:57.009Z,264.00
2023-05-05T04:12:57.114Z,280.00
2023-05-05T04:13:56.964Z,304.00
2023-05-05T04:14:56.937Z,320.00
2023-05-05T04:15:56.967Z,344.00
2023-05-05T04:16:56.891Z,368.00
2023-05-05T04:17:56.883Z,392.00
2023-05-05T04:18:56.870Z,416.00
2023-05-05T04:19:56.812Z,440.00
2023-05-05T04:20:56.788Z,464.00
2023-05-05T04:21:56.766Z,496.00
2023-05-05T04:22:56.741Z,532.00
2023-05-05T04:23:56.723Z,564.00
2023-05-05T04:24:56.703Z,600.00
2023-05-05T04:25:56.664Z,624.00
2023-05-05T04:26:56.646Z,644.00
2023-05-05T04:27:56.612Z,668.00
2023-05-05T04:28:56.587Z,688.00
2023-05-05T04:29:56.559Z,720.00
2023-05-05T04:30:56.555Z,736.00
2023-05-05T04:31:56.510Z,748.00
2023-05-05T04:32:56.647Z,760.00
2023-05-05T04:33:56.460Z,776.00
2023-05-05T04:34:56.454Z,788.00
2023-05-05T04:35:56.408Z,784.00
2023-05-05T04:36:56.384Z,780.00
2023-05-05T04:37:56.354Z,788.00
2023-05-05T04:38:56.447Z,808.00
2023-05-05T04:39:56.308Z,828.00
2023-05-05T04:40:56.301Z,852.00
2023-05-05T04:41:56.258Z,876.00
2023-05-05T04:42:56.237Z,900.00
2023-05-05T04:43:56.205Z,920.00
2023-05-05T04:44:56.182Z,940.00
2023-05-05T04:45:56.154Z,960.00
2023-05-05T04:46:56.178Z,996.00
2023-05-05T04:47:56.191Z,1036.00
2023-05-05T04:48:56.081Z,1076.00
2023-05-05T04:49:56.065Z,1124.00
2023-05-05T04:50:56.031Z,1160.00
2023-05-05T04:51:56.003Z,1184.00
2023-05-05T04:52:55.982Z,1204.00
2023-05-05T04:53:55.954Z,1236.00
2023-05-05T04:54:55.936Z,1260.00
2023-05-05T04:55:55.905Z,1284.00
2023-05-05T04:56:55.907Z,1316.00
2023-05-05T04:57:55.857Z,1360.00
2023-05-05T04:58:55.833Z,1400.00
2023-05-05T04:59:55.810Z,1456.00
2023-05-05T05:00:55.789Z,1512.00
2023-05-05T05:01:55.779Z,1556.00
2023-05-05T05:02:55.776Z,1588.00
2023-05-05T05:03:55.911Z,1600.00
2023-05-05T05:04:55.678Z,1612.00
2023-05-05T05:05:55.653Z,1632.00
2023-05-05T05:06:58.363Z,1672.00
2023-05-05T05:07:55.600Z,1716.00
2023-05-05T05:08:55.579Z,1764.00
2023-05-05T05:09:55.559Z,1808.00
2023-05-05T05:10:55.530Z,1852.00
2023-05-05T05:11:55.503Z,1916.00
2023-05-05T05:12:55.544Z,2020.00
2023-05-05T05:13:55.450Z,2128.00
2023-05-05T05:14:55.431Z,2184.00
2023-05-05T05:15:55.402Z,2220.00
2023-05-05T05:16:55.424Z,2260.00
2023-05-05T05:17:55.396Z,2308.00
2023-05-05T05:18:55.341Z,2356.00
2023-05-05T05:19:55.306Z,2404.00
2023-05-05T05:20:55.275Z,2456.00
2023-05-05T05:21:55.250Z,2500.00
2023-05-05T05:22:55.228Z,2556.00
2023-05-05T05:23:55.195Z,2628.00
2023-05-05T05:24:55.176Z,2696.00
2023-05-05T05:25:55.151Z,2776.00
2023-05-05T05:26:55.135Z,2852.00
2023-05-05T05:28:06.117Z,2916.00
2023-05-05T05:28:55.097Z,2972.00
2023-05-05T05:29:55.049Z,3000.00
2023-05-05T05:30:55.041Z,3020.00
2023-05-05T05:31:55.020Z,3048.00
2023-05-05T05:32:55.019Z,3100.00
2023-05-05T05:33:54.968Z,3128.00
2023-05-05T05:34:54.926Z,3080.00
2023-05-05T05:35:54.899Z,3132.00
2023-05-05T05:36:54.872Z,3156.00
2023-05-05T05:37:54.849Z,3208.00
2023-05-05T05:38:54.831Z,3248.00
2023-05-05T05:39:54.807Z,3284.00
2023-05-05T05:40:54.779Z,3308.00
2023-05-05T05:41:54.750Z,3316.00
2023-05-05T05:42:54.750Z,3344.00
2023-05-05T05:43:54.702Z,3380.00
2023-05-05T05:44:54.694Z,3456.00
2023-05-05T05:45:54.693Z,3504.00
2023-05-05T05:46:54.627Z,3604.00
2023-05-05T05:47:54.791Z,3696.00
2023-05-05T05:48:54.583Z,3732.00
2023-05-05T05:49:54.549Z,3776.00
2023-05-05T05:50:54.528Z,3804.00
2023-05-05T05:51:54.502Z,3852.00
2023-05-05T05:52:54.488Z,3892.00
2023-05-05T05:53:56.316Z,3936.00
2023-05-05T05:54:54.431Z,3952.00
2023-05-05T05:55:54.402Z,3996.00
2023-05-05T05:56:54.391Z,4040.00
2023-05-05T05:57:54.358Z,4088.00
2023-05-05T05:58:54.331Z,4088.00
2023-05-05T05:59:54.321Z,4168.00
2023-05-05T06:00:54.300Z,4224.00
2023-05-05T06:01:54.255Z,4228.00
2023-05-05T06:02:54.411Z,4260.00
2023-05-05T06:03:54.255Z,4124.00
2023-05-05T06:04:54.179Z,4340.00
2023-05-05T06:05:54.179Z,4304.00
2023-05-05T06:06:54.140Z,4156.00
2023-05-05T06:07:54.108Z,4132.00
2023-05-05T06:08:54.090Z,4160.00
2023-05-05T06:09:54.058Z,4248.00
2023-05-05T06:10:54.040Z,4420.00
2023-05-05T06:11:54.014Z,4472.00
2023-05-05T06:12:54.084Z,4476.00
2023-05-05T06:13:53.963Z,4424.00
2023-05-05T06:14:53.939Z,4436.00
2023-05-05T06:15:53.955Z,4540.00
2023-05-05T06:16:53.919Z,4508.00
2023-05-05T06:17:53.932Z,4504.00
2023-05-05T06:18:53.841Z,4476.00
2023-05-05T06:19:54.593Z,4424.00
2023-05-05T06:20:53.796Z,4480.00
2023-05-05T06:21:53.768Z,4504.00
2023-05-05T06:22:53.746Z,4524.00
2023-05-05T06:23:53.718Z,4564.00
2023-05-05T06:24:53.698Z,4616.00
2023-05-05T06:25:53.671Z,4556.00
2023-05-05T06:26:53.649Z,4608.00
2023-05-05T06:27:53.622Z,4584.00
2023-05-05T06:28:53.601Z,4564.00
2023-05-05T06:29:53.581Z,4524.00
2023-05-05T06:30:53.553Z,4380.00
2023-05-05T06:31:53.560Z,4504.00
2023-05-05T06:32:53.630Z,4596.00
2023-05-05T06:33:53.485Z,4588.00
2023-05-05T06:34:53.507Z,4524.00
2023-05-05T06:35:53.440Z,4544.00
2023-05-05T06:36:53.455Z,4520.00
2023-05-05T06:37:53.426Z,4452.00
2023-05-05T06:38:53.363Z,4428.00
2023-05-05T06:39:53.346Z,4456.00
2023-05-05T06:40:53.320Z,4516.00
2023-05-05T06:41:53.294Z,4564.00
2023-05-05T06:42:53.281Z,4696.00
2023-05-05T06:43:53.244Z,4860.00
2023-05-05T06:44:53.230Z,4944.00
2023-05-05T06:45:53.198Z,5132.00
2023-05-05T06:46:53.218Z,5352.00
2023-05-05T06:47:53.160Z,5692.00
2023-05-05T06:48:53.273Z,5764.00
2023-05-05T06:49:53.104Z,6112.00
2023-05-05T06:50:53.081Z,6416.00
2023-05-05T06:51:53.055Z,6696.00
2023-05-05T06:52:53.036Z,6740.00
2023-05-05T06:53:53.009Z,6792.00
2023-05-05T06:54:52.987Z,6804.00
2023-05-05T06:55:52.969Z,6852.00
2023-05-05T06:56:52.938Z,6860.00
2023-05-05T06:57:52.914Z,6832.00
2023-05-05T06:58:52.901Z,6652.00
2023-05-05T06:59:52.873Z,6404.00
2023-05-05T07:00:52.918Z,6068.00
2023-05-05T07:01:52.825Z,5860.00
2023-05-05T07:02:52.850Z,5744.00
2023-05-05T07:03:52.828Z,5696.00
2023-05-05T07:04:52.893Z,5708.00
2023-05-05T07:05:52.731Z,5700.00
2023-05-05T07:06:52.712Z,5660.00
2023-05-05T07:07:52.694Z,5600.00
2023-05-05T07:08:52.667Z,5624.00
2023-05-05T07:09:52.648Z,5524.00
2023-05-05T07:10:52.629Z,5460.00
2023-05-05T07:11:52.591Z,5328.00
2023-05-05T07:12:52.724Z,5164.00
2023-05-05T07:13:52.554Z,5036.00
2023-05-05T07:14:52.552Z,4872.00
2023-05-05T07:15:52.503Z,4760.00
2023-05-05T07:16:52.500Z,4596.00
2023-05-05T07:17:52.486Z,4416.00
2023-05-05T07:18:52.437Z,4332.00
2023-05-05T07:19:52.413Z,4204.00
2023-05-05T07:20:52.627Z,4212.00
2023-05-05T07:21:52.368Z,4176.00
2023-05-05T07:22:52.400Z,4208.00
2023-05-05T07:23:52.321Z,4212.00
2023-05-05T07:24:52.300Z,4244.00
2023-05-05T07:25:52.281Z,4244.00
2023-05-05T07:26:52.283Z,4220.00
2023-05-05T07:27:52.236Z,4236.00
2023-05-05T07:28:52.208Z,4248.00
2023-05-05T07:29:52.183Z,4224.00
2023-05-05T07:30:52.164Z,4212.00
2023-05-05T07:31:52.248Z,4224.00
2023-05-05T07:32:52.157Z,4196.00
2023-05-05T07:33:52.097Z,4168.00
2023-05-05T07:34:52.082Z,4156.00
2023-05-05T07:35:52.051Z,4172.00
2023-05-05T07:36:52.119Z,4232.00
2023-05-05T07:37:52.001Z,4284.00
2023-05-05T07:38:52.007Z,4332.00
2023-05-05T07:39:51.966Z,4376.00
2023-05-05T07:40:51.938Z,4392.00
2023-05-05T07:41:51.913Z,4416.00
2023-05-05T07:42:51.889Z,4400.00
2023-05-05T07:43:51.875Z,4496.00
2023-05-05T07:44:51.837Z,4484.00
2023-05-05T07:45:51.878Z,4460.00
2023-05-05T07:46:51.798Z,4476.00
2023-05-05T07:47:51.803Z,4440.00
2023-05-05T07:48:51.747Z,4468.00
2023-05-05T07:49:51.722Z,4448.00
2023-05-05T07:50:51.702Z,4436.00
2023-05-05T07:51:51.676Z,4472.00
2023-05-05T07:52:59.273Z,4420.00
2023-05-05T07:53:51.629Z,4396.00
2023-05-05T07:54:51.609Z,4484.00
2023-05-05T07:55:51.584Z,4392.00
2023-05-05T07:56:51.562Z,4428.00
2023-05-05T07:57:51.534Z,4472.00
2023-05-05T07:58:51.514Z,4432.00
2023-05-05T07:59:51.495Z,4528.00
2023-05-05T08:00:51.476Z,4512.00
2023-05-05T08:01:52.521Z,4628.00
2023-05-05T08:02:51.478Z,4740.00
2023-05-05T08:03:51.474Z,4764.00
2023-05-05T08:04:51.394Z,4820.00
2023-05-05T08:05:51.890Z,4740.00
2023-05-05T08:06:51.332Z,4692.00
2023-05-05T08:07:51.324Z,4616.00
2023-05-05T08:08:51.449Z,4668.00
2023-05-05T08:09:51.266Z,4632.00
2023-05-05T08:10:51.235Z,4584.00
2023-05-05T08:11:51.215Z,4532.00
2023-05-05T08:12:51.203Z,4504.00
2023-05-05T08:13:51.184Z,4464.00
2023-05-05T08:14:51.145Z,4436.00
2023-05-05T08:15:51.205Z,4456.00
2023-05-05T08:16:51.116Z,4424.00
2023-05-05T08:17:51.142Z,4400.00
2023-05-05T08:18:51.058Z,4432.00
2023-05-05T08:19:51.040Z,4404.00
2023-05-05T08:20:51.007Z,4380.00
2023-05-05T08:21:51.000Z,4540.00
2023-05-05T08:22:50.962Z,4480.00
2023-05-05T08:23:50.939Z,4608.00
2023-05-05T08:24:51.035Z,4680.00
2023-05-05T08:25:50.897Z,4720.00
2023-05-05T08:26:50.880Z,4736.00
2023-05-05T08:27:50.853Z,4480.00
2023-05-05T08:28:50.825Z,4744.00
2023-05-05T08:29:50.812Z,4784.00
2023-05-05T08:30:50.781Z,4824.00
2023-05-05T08:31:50.813Z,4796.00
2023-05-05T08:32:50.784Z,4920.00
2023-05-05T08:33:50.712Z,5072.00
2023-05-05T08:34:50.689Z,5208.00
2023-05-05T08:35:50.669Z,5308.00
2023-05-05T08:36:50.640Z,5568.00
2023-05-05T08:37:50.651Z,5680.00
2023-05-05T08:38:50.597Z,5816.00
2023-05-05T08:39:50.577Z,5928.00
2023-05-05T08:40:50.780Z,6132.00
2023-05-05T08:41:50.533Z,6328.00
2023-05-05T08:42:50.509Z,6520.00
2023-05-05T08:43:50.517Z,6620.00
2023-05-05T08:44:50.464Z,6748.00
2023-05-05T08:45:50.441Z,6932.00
2023-05-05T08:46:50.440Z,7072.00
2023-05-05T08:47:50.398Z,7328.00
2023-05-05T08:48:50.370Z,7524.00
2023-05-05T08:49:50.348Z,7640.00
2023-05-05T08:50:50.323Z,7728.00
2023-05-05T08:51:50.304Z,7792.00
2023-05-05T08:52:51.287Z,7884.00
2023-05-05T08:53:50.259Z,7904.00
2023-05-05T08:54:50.235Z,7956.00
2023-05-05T08:55:50.215Z,7980.00
2023-05-05T08:56:50.281Z,8008.00
2023-05-05T08:57:50.169Z,8100.00
2023-05-05T08:58:50.149Z,8148.00
2023-05-05T08:59:50.125Z,8068.00
2023-05-05T09:00:50.122Z,8096.00
2023-05-05T09:01:50.079Z,8104.00
2023-05-05T09:02:50.231Z,8164.00
2023-05-05T09:03:50.039Z,8116.00
2023-05-05T09:04:50.019Z,8156.00
2023-05-05T09:05:49.994Z,8140.00
2023-05-05T09:06:49.975Z,8096.00
2023-05-05T09:07:49.951Z,8120.00
2023-05-05T09:08:49.936Z,8172.00
2023-05-05T09:09:49.907Z,8128.00
2023-05-05T09:10:49.893Z,8116.00
2023-05-05T09:11:49.866Z,8104.00
2023-05-05T09:12:50.089Z,8044.00
2023-05-05T09:13:49.823Z,7948.00
2023-05-05T09:14:49.801Z,7860.00
2023-05-05T09:15:49.779Z,7800.00
2023-05-05T09:16:49.812Z,7736.00
2023-05-05T09:17:49.750Z,7608.00
2023-05-05T09:18:49.722Z,7532.00
2023-05-05T09:19:49.692Z,7452.00
2023-05-05T09:20:49.674Z,7320.00
2023-05-05T09:21:49.658Z,7312.00
2023-05-05T09:22:49.629Z,7276.00
2023-05-05T09:23:49.615Z,7260.00
2023-05-05T09:24:49.591Z,7436.00
2023-05-05T09:25:49.573Z,7560.00
2023-05-05T09:26:49.550Z,7608.00
2023-05-05T09:27:49.539Z,7696.00
2023-05-05T09:28:49.598Z,7720.00
2023-05-05T09:29:49.490Z,7796.00
2023-05-05T09:30:49.501Z,7928.00
2023-05-05T09:31:49.455Z,7912.00
2023-05-05T09:32:49.470Z,8016.00
2023-05-05T09:33:49.409Z,8120.00
2023-05-05T09:34:49.379Z,8208.00
2023-05-05T09:35:49.366Z,8172.00
2023-05-05T09:36:49.338Z,8176.00
2023-05-05T09:37:49.318Z,8188.00
2023-05-05T09:38:49.302Z,8100.00
2023-05-05T09:39:49.280Z,8164.00
2023-05-05T09:40:49.265Z,8332.00
2023-05-05T09:41:49.251Z,8352.00
2023-05-05T09:42:49.215Z,8472.00
2023-05-05T09:43:49.197Z,8392.00
2023-05-05T09:44:49.269Z,8260.00
2023-05-05T09:45:49.157Z,8276.00
2023-05-05T09:46:49.205Z,8368.00
2023-05-05T09:47:49.263Z,8388.00
2023-05-05T09:48:49.087Z,8468.00
2023-05-05T09:49:49.070Z,8608.00
2023-05-05T09:50:49.049Z,8700.00
2023-05-05T09:51:49.035Z,8832.00
2023-05-05T09:52:49.144Z,8928.00
2023-05-05T09:53:48.987Z,9012.00
2023-05-05T09:54:48.976Z,9092.00
2023-05-05T09:55:48.954Z,9164.00
2023-05-05T09:56:48.922Z,9280.00
2023-05-05T09:57:48.903Z,9504.00
2023-05-05T09:58:48.934Z,9724.00
2023-05-05T09:59:48.863Z,9892.00
2023-05-05T10:00:48.910Z,9944.00
2023-05-05T10:01:48.859Z,9968.00
2023-05-05T10:02:48.837Z,10104.00
2023-05-05T10:03:48.780Z,10192.00
2023-05-05T10:04:48.843Z,10312.00
2023-05-05T10:05:48.746Z,10348.00
2023-05-05T10:06:48.727Z,10448.00
2023-05-05T10:07:48.708Z,10420.00
2023-05-05T10:08:48.679Z,10384.00
2023-05-05T10:09:48.657Z,10312.00
2023-05-05T10:10:48.652Z,10352.00
2023-05-05T10:11:48.619Z,10300.00
2023-05-05T10:12:48.611Z,10244.00
2023-05-05T10:13:48.579Z,10252.00
2023-05-05T10:14:48.560Z,10228.00
2023-05-05T10:15:48.567Z,10304.00
2023-05-05T10:16:48.630Z,10196.00
2023-05-05T10:18:02.193Z,10208.00
2023-05-05T10:18:48.479Z,10248.00
2023-05-05T10:19:48.459Z,10300.00
2023-05-05T10:20:48.453Z,10360.00
2023-05-05T10:21:48.419Z,10480.00
2023-05-05T10:22:48.411Z,10580.00
2023-05-05T10:23:48.415Z,10668.00
2023-05-05T10:24:48.359Z,10632.00
2023-05-05T10:25:48.340Z,10536.00
2023-05-05T10:26:48.325Z,10440.00
2023-05-05T10:27:48.306Z,10228.00
2023-05-05T10:28:48.287Z,10300.00
2023-05-05T10:29:48.272Z,10368.00
2023-05-05T10:30:48.243Z,10284.00
2023-05-05T10:31:48.238Z,10088.00
2023-05-05T10:32:59.863Z,9980.00
2023-05-05T10:33:48.248Z,9756.00
2023-05-05T10:34:48.166Z,9564.00
2023-05-05T10:35:48.150Z,9380.00
2023-05-05T10:36:48.132Z,9232.00
2023-05-05T10:37:48.109Z,9052.00
2023-05-05T10:38:48.086Z,8868.00
2023-05-05T10:39:48.078Z,8652.00
2023-05-05T10:40:48.051Z,8524.00
2023-05-05T10:41:48.044Z,8380.00
2023-05-05T10:42:48.028Z,8284.00
2023-05-05T10:43:47.991Z,8296.00
2023-05-05T10:44:47.971Z,8296.00
2023-05-05T10:45:48.058Z,8264.00
2023-05-05T10:46:47.940Z,8236.00
2023-05-05T10:47:47.959Z,8208.00
2023-05-05T10:48:47.969Z,8076.00
2023-05-05T10:49:47.879Z,8088.00
2023-05-05T10:50:47.853Z,8164.00
2023-05-05T10:51:47.832Z,8164.00
2023-05-05T10:52:47.814Z,8348.00
2023-05-05T10:53:47.818Z,8208.00
2023-05-05T10:54:47.791Z,8344.00
2023-05-05T10:55:47.755Z,8408.00
2023-05-05T10:56:47.735Z,8400.00
2023-05-05T10:57:47.716Z,8412.00
2023-05-05T10:58:59.128Z,8376.00
2023-05-05T10:59:47.856Z,8420.00
2023-05-05T11:00:47.692Z,8392.00
2023-05-05T11:01:47.649Z,8440.00
2023-05-05T11:02:47.638Z,8472.00
2023-05-05T11:03:47.615Z,8324.00
2023-05-05T11:04:47.684Z,8364.00
2023-05-05T11:05:47.558Z,8340.00
2023-05-05T11:06:47.538Z,8328.00
2023-05-05T11:07:47.534Z,8320.00
2023-05-05T11:08:47.498Z,8276.00
2023-05-05T11:09:47.477Z,8224.00
2023-05-05T11:10:47.457Z,8204.00
2023-05-05T11:11:47.438Z,8196.00
2023-05-05T11:12:47.457Z,8308.00
2023-05-05T11:13:47.400Z,8404.00
2023-05-05T11:14:47.390Z,8388.00
2023-05-05T11:15:47.357Z,8408.00
2023-05-05T11:16:47.434Z,8484.00
2023-05-05T11:17:47.323Z,8540.00
2023-05-05T11:18:47.300Z,8560.00
2023-05-05T11:19:47.296Z,8624.00
2023-05-05T11:20:47.377Z,8652.00
2023-05-05T11:21:47.240Z,8652.00
2023-05-05T11:22:47.217Z,8724.00
2023-05-05T11:23:47.229Z,8752.00
2023-05-05T11:24:47.196Z,8624.00
2023-05-05T11:25:47.169Z,8592.00
2023-05-05T11:26:47.143Z,8496.00
2023-05-05T11:27:47.122Z,8468.00
2023-05-05T11:28:47.104Z,8560.00
2023-05-05T11:29:47.083Z,8584.00
2023-05-05T11:30:47.092Z,8588.00
2023-05-05T11:31:47.045Z,8496.00
2023-05-05T11:32:47.110Z,8484.00
2023-05-05T11:33:47.016Z,8528.00
2023-05-05T11:34:46.991Z,8628.00
2023-05-05T11:35:46.965Z,8656.00
2023-05-05T11:36:47.038Z,8816.00
2023-05-05T11:37:46.929Z,8920.00
2023-05-05T11:38:46.909Z,9044.00
2023-05-05T11:39:46.894Z,9500.00
2023-05-05T11:40:46.891Z,10028.00
2023-05-05T11:41:46.862Z,10552.00
2023-05-05T11:42:46.845Z,10920.00
2023-05-05T11:43:46.827Z,11040.00
2023-05-05T11:44:46.797Z,11092.00
2023-05-05T11:45:46.777Z,11120.00
2023-05-05T11:46:46.757Z,11324.00
2023-05-05T11:47:46.871Z,11768.00
2023-05-05T11:48:46.717Z,12228.00
2023-05-05T11:49:46.706Z,12780.00
2023-05-05T11:50:46.681Z,13152.00
2023-05-05T11:51:46.669Z,13576.00
2023-05-05T11:52:46.737Z,14012.00
2023-05-05T11:53:46.640Z,14304.00
2023-05-05T11:54:46.609Z,13640.00
2023-05-05T11:55:46.594Z,12996.00
2023-05-05T11:56:46.571Z,11760.00
2023-05-05T11:57:46.554Z,11332.00
2023-05-05T11:58:46.539Z,11232.00
2023-05-05T11:59:49.035Z,11316.00
2023-05-05T12:00:46.495Z,11600.00
2023-05-05T12:01:46.478Z,11868.00
2023-05-05T12:02:46.564Z,12280.00
2023-05-05T12:03:46.595Z,12596.00
2023-05-05T12:04:46.443Z,13060.00
2023-05-05T12:05:46.404Z,13568.00
2023-05-05T12:06:46.388Z,14020.00
2023-05-05T12:07:46.371Z,14340.00
2023-05-05T12:08:46.530Z,14664.00
2023-05-05T12:09:46.349Z,14828.00
2023-05-05T12:10:46.315Z,14772.00
2023-05-05T12:11:46.297Z,14556.00
2023-05-05T12:12:46.334Z,14216.00
2023-05-05T12:13:46.264Z,14312.00
2023-05-05T12:14:46.256Z,14480.00
2023-05-05T12:15:46.236Z,14444.00
2023-05-05T12:16:46.255Z,14292.00
2023-05-05T12:17:46.376Z,14168.00
2023-05-05T12:18:46.175Z,13812.00
2023-05-05T12:19:46.158Z,13664.00
2023-05-05T12:20:46.137Z,13532.00
2023-05-05T12:21:46.128Z,13444.00
2023-05-05T12:22:46.103Z,13524.00
2023-05-05T12:23:46.087Z,13868.00
2023-05-05T12:24:46.226Z,14044.00
2023-05-05T12:25:46.049Z,14140.00